Carson City, Nevada
Current Conditions -  °F | °C
As of 5:15 AM on Thursday 23 Oct 2014 (Local Time) from KCXP Reporting Station
Clear Clear  
Wind Chill:   Ceiling: Unl
Heat Index:   Visibility: 10mi
Dew Point: -3°   Wind: 6mph
Humidity: 57%   Direction: 110°ESE
Pressure: 30.09"   Gusts: NA
Location:  39.16°N, 119.77°W
Report Text: KCXP 231215Z AUTO 11005KT 10SM CLR 05/M03 A3009 RMK AO2
Loading
Personal Weather Stations






























Interactive Weather Map
Tropical Storm Tracking
New forecast layout! Learn more

10-Day Weather Forecast

Advertisements
Track Severe Weather on mobile